sensor_id;sensor_type;location;lat;lon;timestamp;temperature;humidity
16732;DHT22;8484;50.904;9.192;2023-01-01T00:00:58;12.90;99.90
16732;DHT22;8484;50.904;9.192;2023-01-01T00:03:25;13.10;99.90
16732;DHT22;8484;50.904;9.192;2023-01-01T00:05:53;12.70;99.90
16732;DHT22;8484;50.904;9.192;2023-01-01T00:08:20;12.80;99.90
16732;DHT22;8484;50.904;9.192;2023-01-01T00:10:47;12.80;99.90
16732;DHT22;8484;50.904;9.192;2023-01-01T00:13:14;12.90;99.90
16732;DHT22;8484;50.904;9.192;2023-01-01T00:15:41;12.90;99.90
16732;DHT22;8484;50.904;9.192;2023-01-01T00:18:08;13.00;99.90
16732;DHT22;8484;50.904;9.192;2023-01-01T00:20:35;13.00;99.90
16732;DHT22;8484;50.904;9.192;2023-01-01T00:23:03;13.00;99.90
16732;DHT22;8484;50.904;9.192;2023-01-01T00:25:30;12.90;99.90
16732;DHT22;8484;50.904;9.192;2023-01-01T00:27:57;12.90;99.90
16732;DHT22;8484;50.904;9.192;2023-01-01T00:30:24;12.80;99.90
16732;DHT22;8484;50.904;9.192;2023-01-01T00:32:51;12.70;99.90
16732;DHT22;8484;50.904;9.192;2023-01-01T00:35:18;12.90;99.90
16732;DHT22;8484;50.904;9.192;2023-01-01T00:37:45;12.90;99.90
16732;DHT22;8484;50.904;9.192;2023-01-01T00:40:14;12.80;99.90
16732;DHT22;8484;50.904;9.192;2023-01-01T00:42:41;12.90;99.90
16732;DHT22;8484;50.904;9.192;2023-01-01T00:45:08;12.70;99.90
16732;DHT22;8484;50.904;9.192;2023-01-01T00:47:36;12.70;99.90
16732;DHT22;8484;50.904;9.192;2023-01-01T00:50:03;12.40;99.90
16732;DHT22;8484;50.904;9.192;2023-01-01T00:52:31;12.60;99.90
16732;DHT22;8484;50.904;9.192;2023-01-01T00:54:57;12.50;99.90
16732;DHT22;8484;50.904;9.192;2023-01-01T00:57:28;12.70;99.90
16732;DHT22;8484;50.904;9.192;2023-01-01T00:59:55;12.70;99.90
16732;DHT22;8484;50.904;9.192;2023-01-01T01:02:22;12.70;99.90
16732;DHT22;8484;50.904;9.192;2023-01-01T01:04:49;12.80;99.90
16732;DHT22;8484;50.904;9.192;2023-01-01T01:07:16;12.60;99.90
16732;DHT22;8484;50.904;9.192;2023-01-01T01:09:43;12.60;99.90
16732;DHT22;8484;50.904;9.192;2023-01-01T01:12:10;12.80;99.90
16732;DHT22;8484;50.904;9.192;2023-01-01T01:14:38;12.50;99.90
16732;DHT22;8484;50.904;9.192;2023-01-01T01:17:05;12.60;99.90
16732;DHT22;8484;50.904;9.192;2023-01-01T01:19:32;12.50;99.90
16732;DHT22;8484;50.904;9.192;2023-01-01T01:21:58;12.30;99.90
16732;DHT22;8484;50.904;9.192;2023-01-01T01:24:25;12.20;99.90
16732;DHT22;8484;50.904;9.192;2023-01-01T01:26:52;12.40;99.90
16732;DHT22;8484;50.904;9.192;2023-01-01T01:29:19;12.30;99.90
16732;DHT22;8484;50.904;9.192;2023-01-01T01:31:47;12.50;99.90
16732;DHT22;8484;50.904;9.192;2023-01-01T01:34:14;12.40;99.90
16732;DHT22;8484;50.904;9.192;2023-01-01T01:36:42;12.20;99.90
16732;DHT22;8484;50.904;9.192;2023-01-01T01:39:10;12.20;99.90
16732;DHT22;8484;50.904;9.192;2023-01-01T01:41:36;12.10;99.90
16732;DHT22;8484;50.904;9.192;2023-01-01T01:46:49;12.10;99.90
16732;DHT22;8484;50.904;9.192;2023-01-01T01:49:20;11.90;99.90
16732;DHT22;8484;50.904;9.192;2023-01-01T01:51:48;12.00;99.90
16732;DHT22;8484;50.904;9.192;2023-01-01T01:54:19;11.90;99.90
16732;DHT22;8484;50.904;9.192;2023-01-01T01:56:50;12.10;99.90
16732;DHT22;8484;50.904;9.192;2023-01-01T01:59:19;12.10;99.90
16732;DHT22;8484;50.904;9.192;2023-01-01T02:01:49;12.00;99.90
16732;DHT22;8484;50.904;9.192;2023-01-01T02:04:16;12.10;99.90
16732;DHT22;8484;50.904;9.192;2023-01-01T02:06:43;12.20;99.90
16732;DHT22;8484;50.904;9.192;2023-01-01T02:09:10;12.30;99.90
16732;DHT22;8484;50.904;9.192;2023-01-01T02:11:38;12.20;99.90
16732;DHT22;8484;50.904;9.192;2023-01-01T02:14:05;12.00;99.90
16732;DHT22;8484;50.904;9.192;2023-01-01T02:16:36;12.20;99.90
16732;DHT22;8484;50.904;9.192;2023-01-01T02:19:15;12.10;99.90
16732;DHT22;8484;50.904;9.192;2023-01-01T02:21:55;12.00;99.90
16732;DHT22;8484;50.904;9.192;2023-01-01T02:27:23;12.00;99.90
16732;DHT22;8484;50.904;9.192;2023-01-01T02:29:57;12.00;99.90
16732;DHT22;8484;50.904;9.192;2023-01-01T02:32:29;12.00;99.90
16732;DHT22;8484;50.904;9.192;2023-01-01T02:35:00;12.00;99.90
16732;DHT22;8484;50.904;9.192;2023-01-01T02:37:50;12.00;99.90
16732;DHT22;8484;50.904;9.192;2023-01-01T02:40:20;12.00;99.90
16732;DHT22;8484;50.904;9.192;2023-01-01T02:42:48;12.10;99.90
16732;DHT22;8484;50.904;9.192;2023-01-01T02:45:17;12.00;99.90
16732;DHT22;8484;50.904;9.192;2023-01-01T02:47:44;12.00;99.90
16732;DHT22;8484;50.904;9.192;2023-01-01T02:50:13;12.00;99.90
16732;DHT22;8484;50.904;9.192;2023-01-01T02:52:59;12.30;99.90
16732;DHT22;8484;50.904;9.192;2023-01-01T02:55:36;12.40;99.90
16732;DHT22;8484;50.904;9.192;2023-01-01T02:58:11;12.40;99.90
16732;DHT22;8484;50.904;9.192;2023-01-01T03:01:02;12.60;99.90
16732;DHT22;8484;50.904;9.192;2023-01-01T03:03:37;12.70;99.90
16732;DHT22;8484;50.904;9.192;2023-01-01T03:06:09;12.60;99.90
16732;DHT22;8484;50.904;9.192;2023-01-01T03:08:50;12.60;99.90
16732;DHT22;8484;50.904;9.192;2023-01-01T03:11:21;12.50;99.90
16732;DHT22;8484;50.904;9.192;2023-01-01T03:13:53;12.60;99.90
16732;DHT22;8484;50.904;9.192;2023-01-01T03:16:27;12.60;99.90
16732;DHT22;8484;50.904;9.192;2023-01-01T03:18:59;12.40;99.90
16732;DHT22;8484;50.904;9.192;2023-01-01T03:21:40;12.40;99.90
16732;DHT22;8484;50.904;9.192;2023-01-01T03:24:12;12.30;99.90
16732;DHT22;8484;50.904;9.192;2023-01-01T03:26:43;12.20;99.90
16732;DHT22;8484;50.904;9.192;2023-01-01T03:29:12;12.10;99.90
16732;DHT22;8484;50.904;9.192;2023-01-01T03:31:43;12.10;99.90
16732;DHT22;8484;50.904;9.192;2023-01-01T03:34:15;12.00;99.90
16732;DHT22;8484;50.904;9.192;2023-01-01T03:36:45;12.00;99.90
16732;DHT22;8484;50.904;9.192;2023-01-01T03:39:17;12.00;99.90
16732;DHT22;8484;50.904;9.192;2023-01-01T03:41:48;11.90;99.90
16732;DHT22;8484;50.904;9.192;2023-01-01T03:44:22;11.90;99.90
16732;DHT22;8484;50.904;9.192;2023-01-01T03:46:52;11.90;99.90
16732;DHT22;8484;50.904;9.192;2023-01-01T03:49:19;11.70;99.90
16732;DHT22;8484;50.904;9.192;2023-01-01T03:51:56;11.80;99.90
16732;DHT22;8484;50.904;9.192;2023-01-01T03:54:35;11.80;99.90
16732;DHT22;8484;50.904;9.192;2023-01-01T03:57:10;11.70;99.90
16732;DHT22;8484;50.904;9.192;2023-01-01T03:59:43;11.70;99.90
16732;DHT22;8484;50.904;9.192;2023-01-01T04:02:16;11.90;99.90
16732;DHT22;8484;50.904;9.192;2023-01-01T04:04:45;11.80;99.90
16732;DHT22;8484;50.904;9.192;2023-01-01T04:07:12;11.70;99.90
16732;DHT22;8484;50.904;9.192;2023-01-01T04:09:39;11.70;99.90
16732;DHT22;8484;50.904;9.192;2023-01-01T04:12:09;11.60;99.90
16732;DHT22;8484;50.904;9.192;2023-01-01T04:14:40;11.60;99.90
16732;DHT22;8484;50.904;9.192;2023-01-01T04:17:08;11.50;99.90
16732;DHT22;8484;50.904;9.192;2023-01-01T04:19:37;11.50;99.90
16732;DHT22;8484;50.904;9.192;2023-01-01T04:22:04;11.50;99.90
16732;DHT22;8484;50.904;9.192;2023-01-01T04:24:31;11.50;99.90
16732;DHT22;8484;50.904;9.192;2023-01-01T04:26:58;11.50;99.90
16732;DHT22;8484;50.904;9.192;2023-01-01T04:29:25;11.60;99.90
16732;DHT22;8484;50.904;9.192;2023-01-01T04:31:52;11.60;99.90
16732;DHT22;8484;50.904;9.192;2023-01-01T04:34:19;11.60;99.90
16732;DHT22;8484;50.904;9.192;2023-01-01T04:36:47;11.50;99.90
16732;DHT22;8484;50.904;9.192;2023-01-01T04:39:14;11.50;99.90
16732;DHT22;8484;50.904;9.192;2023-01-01T04:41:41;11.60;99.90
16732;DHT22;8484;50.904;9.192;2023-01-01T04:44:08;11.60;99.90
16732;DHT22;8484;50.904;9.192;2023-01-01T04:46:35;11.70;99.90
16732;DHT22;8484;50.904;9.192;2023-01-01T04:49:01;11.70;99.90
16732;DHT22;8484;50.904;9.192;2023-01-01T04:51:28;11.80;99.90
16732;DHT22;8484;50.904;9.192;2023-01-01T04:53:57;11.80;99.90
16732;DHT22;8484;50.904;9.192;2023-01-01T04:56:24;11.70;99.90
16732;DHT22;8484;50.904;9.192;2023-01-01T04:58:51;11.80;99.90
16732;DHT22;8484;50.904;9.192;2023-01-01T05:01:20;11.90;99.90
16732;DHT22;8484;50.904;9.192;2023-01-01T05:03:47;12.10;99.90
16732;DHT22;8484;50.904;9.192;2023-01-01T05:06:15;12.00;99.90
16732;DHT22;8484;50.904;9.192;2023-01-01T05:08:43;12.00;99.90
16732;DHT22;8484;50.904;9.192;2023-01-01T05:11:13;12.00;99.90
16732;DHT22;8484;50.904;9.192;2023-01-01T05:13:42;12.00;99.90
16732;DHT22;8484;50.904;9.192;2023-01-01T05:16:11;11.90;99.90
16732;DHT22;8484;50.904;9.192;2023-01-01T05:18:39;11.90;99.90
16732;DHT22;8484;50.904;9.192;2023-01-01T05:21:07;11.90;99.90
16732;DHT22;8484;50.904;9.192;2023-01-01T05:23:34;11.90;99.90
16732;DHT22;8484;50.904;9.192;2023-01-01T05:26:08;11.90;99.90
16732;DHT22;8484;50.904;9.192;2023-01-01T05:28:37;11.90;99.90
16732;DHT22;8484;50.904;9.192;2023-01-01T05:31:05;11.70;99.90
16732;DHT22;8484;50.904;9.192;2023-01-01T05:33:32;11.60;99.90
16732;DHT22;8484;50.904;9.192;2023-01-01T05:36:00;11.60;99.90
16732;DHT22;8484;50.904;9.192;2023-01-01T05:38:27;11.50;99.90
16732;DHT22;8484;50.904;9.192;2023-01-01T05:40:54;11.60;99.90
16732;DHT22;8484;50.904;9.192;2023-01-01T05:43:21;11.70;99.90
16732;DHT22;8484;50.904;9.192;2023-01-01T05:45:58;11.60;99.90
16732;DHT22;8484;50.904;9.192;2023-01-01T05:48:25;11.50;99.90
16732;DHT22;8484;50.904;9.192;2023-01-01T05:50:52;11.60;99.90
16732;DHT22;8484;50.904;9.192;2023-01-01T05:53:19;11.60;99.90
16732;DHT22;8484;50.904;9.192;2023-01-01T05:55:51;11.50;99.90
16732;DHT22;8484;50.904;9.192;2023-01-01T05:58:18;11.50;99.90
16732;DHT22;8484;50.904;9.192;2023-01-01T06:00:45;11.50;99.90
16732;DHT22;8484;50.904;9.192;2023-01-01T06:03:13;11.30;99.90
16732;DHT22;8484;50.904;9.192;2023-01-01T06:05:40;11.40;99.90
16732;DHT22;8484;50.904;9.192;2023-01-01T06:08:07;11.40;99.90
16732;DHT22;8484;50.904;9.192;2023-01-01T06:10:34;11.60;99.90
16732;DHT22;8484;50.904;9.192;2023-01-01T06:13:01;11.60;99.90
16732;DHT22;8484;50.904;9.192;2023-01-01T06:15:28;11.60;99.90
16732;DHT22;8484;50.904;9.192;2023-01-01T06:17:55;11.50;99.90
16732;DHT22;8484;50.904;9.192;2023-01-01T06:20:24;11.50;99.90
16732;DHT22;8484;50.904;9.192;2023-01-01T06:22:51;11.60;99.90
16732;DHT22;8484;50.904;9.192;2023-01-01T06:25:18;11.70;99.90
16732;DHT22;8484;50.904;9.192;2023-01-01T06:27:44;11.90;99.90
16732;DHT22;8484;50.904;9.192;2023-01-01T06:30:12;11.90;99.90
16732;DHT22;8484;50.904;9.192;2023-01-01T06:32:38;11.90;99.90
16732;DHT22;8484;50.904;9.192;2023-01-01T06:35:06;12.00;99.90
16732;DHT22;8484;50.904;9.192;2023-01-01T06:37:35;12.00;99.90
16732;DHT22;8484;50.904;9.192;2023-01-01T06:40:02;12.10;99.90
16732;DHT22;8484;50.904;9.192;2023-01-01T06:42:29;12.10;99.90
16732;DHT22;8484;50.904;9.192;2023-01-01T06:44:56;12.10;99.90
16732;DHT22;8484;50.904;9.192;2023-01-01T06:47:23;12.20;99.90
16732;DHT22;8484;50.904;9.192;2023-01-01T06:49:49;12.10;99.90
16732;DHT22;8484;50.904;9.192;2023-01-01T06:52:16;12.10;99.90
16732;DHT22;8484;50.904;9.192;2023-01-01T06:54:45;12.20;99.90
16732;DHT22;8484;50.904;9.192;2023-01-01T06:57:11;12.10;99.90
16732;DHT22;8484;50.904;9.192;2023-01-01T06:59:38;12.00;99.90
16732;DHT22;8484;50.904;9.192;2023-01-01T07:02:07;12.10;99.90
16732;DHT22;8484;50.904;9.192;2023-01-01T07:04:34;12.10;99.90
16732;DHT22;8484;50.904;9.192;2023-01-01T07:07:01;12.10;99.90
16732;DHT22;8484;50.904;9.192;2023-01-01T07:09:28;12.10;99.90
16732;DHT22;8484;50.904;9.192;2023-01-01T07:11:56;12.10;99.90
16732;DHT22;8484;50.904;9.192;2023-01-01T07:14:23;12.10;99.90
16732;DHT22;8484;50.904;9.192;2023-01-01T07:16:50;12.20;99.90
16732;DHT22;8484;50.904;9.192;2023-01-01T07:19:17;12.20;99.90
16732;DHT22;8484;50.904;9.192;2023-01-01T07:21:45;12.20;99.90
16732;DHT22;8484;50.904;9.192;2023-01-01T07:24:14;12.20;99.90
16732;DHT22;8484;50.904;9.192;2023-01-01T07:26:41;12.20;99.90
16732;DHT22;8484;50.904;9.192;2023-01-01T07:29:09;12.10;99.90
16732;DHT22;8484;50.904;9.192;2023-01-01T07:31:41;12.00;99.90
16732;DHT22;8484;50.904;9.192;2023-01-01T07:34:11;12.00;99.90
16732;DHT22;8484;50.904;9.192;2023-01-01T07:36:38;12.10;99.90
16732;DHT22;8484;50.904;9.192;2023-01-01T07:39:05;11.90;99.90
16732;DHT22;8484;50.904;9.192;2023-01-01T07:41:32;11.90;99.90
16732;DHT22;8484;50.904;9.192;2023-01-01T07:43:59;12.10;99.90
16732;DHT22;8484;50.904;9.192;2023-01-01T07:46:27;11.80;99.90
16732;DHT22;8484;50.904;9.192;2023-01-01T07:48:54;11.90;99.90
16732;DHT22;8484;50.904;9.192;2023-01-01T07:51:22;11.90;99.90
16732;DHT22;8484;50.904;9.192;2023-01-01T07:53:48;12.00;99.90
16732;DHT22;8484;50.904;9.192;2023-01-01T07:56:15;12.00;99.90
16732;DHT22;8484;50.904;9.192;2023-01-01T07:58:42;11.80;99.90
16732;DHT22;8484;50.904;9.192;2023-01-01T08:01:09;11.70;99.90
16732;DHT22;8484;50.904;9.192;2023-01-01T08:03:38;11.90;99.90
16732;DHT22;8484;50.904;9.192;2023-01-01T08:06:07;11.70;99.90
16732;DHT22;8484;50.904;9.192;2023-01-01T08:08:34;11.70;99.90
16732;DHT22;8484;50.904;9.192;2023-01-01T08:11:01;11.60;99.90
16732;DHT22;8484;50.904;9.192;2023-01-01T08:13:28;11.60;99.90
16732;DHT22;8484;50.904;9.192;2023-01-01T08:15:56;11.60;99.90
16732;DHT22;8484;50.904;9.192;2023-01-01T08:18:23;11.60;99.90
16732;DHT22;8484;50.904;9.192;2023-01-01T08:20:51;11.60;99.90
16732;DHT22;8484;50.904;9.192;2023-01-01T08:23:18;11.70;99.90
16732;DHT22;8484;50.904;9.192;2023-01-01T08:25:45;11.70;99.90
16732;DHT22;8484;50.904;9.192;2023-01-01T08:28:12;11.90;99.90
16732;DHT22;8484;50.904;9.192;2023-01-01T08:30:39;12.20;99.90
16732;DHT22;8484;50.904;9.192;2023-01-01T08:33:06;12.40;99.90
16732;DHT22;8484;50.904;9.192;2023-01-01T08:35:35;12.80;99.90
16732;DHT22;8484;50.904;9.192;2023-01-01T08:38:04;13.20;99.90
16732;DHT22;8484;50.904;9.192;2023-01-01T08:40:31;13.50;99.90
16732;DHT22;8484;50.904;9.192;2023-01-01T08:42:58;13.40;99.90
16732;DHT22;8484;50.904;9.192;2023-01-01T08:45:25;13.40;99.90
16732;DHT22;8484;50.904;9.192;2023-01-01T08:47:52;13.60;99.90
16732;DHT22;8484;50.904;9.192;2023-01-01T08:50:19;13.90;99.90
16732;DHT22;8484;50.904;9.192;2023-01-01T08:52:46;13.60;99.90
16732;DHT22;8484;50.904;9.192;2023-01-01T08:55:14;14.10;99.90
16732;DHT22;8484;50.904;9.192;2023-01-01T08:57:41;14.40;99.90
16732;DHT22;8484;50.904;9.192;2023-01-01T09:00:09;14.30;99.90
16732;DHT22;8484;50.904;9.192;2023-01-01T09:02:38;13.90;99.90
16732;DHT22;8484;50.904;9.192;2023-01-01T09:05:05;13.30;99.90
16732;DHT22;8484;50.904;9.192;2023-01-01T09:07:32;13.00;99.90
16732;DHT22;8484;50.904;9.192;2023-01-01T09:09:59;12.90;99.90
16732;DHT22;8484;50.904;9.192;2023-01-01T09:12:27;12.80;99.90
16732;DHT22;8484;50.904;9.192;2023-01-01T09:14:55;12.80;99.90
16732;DHT22;8484;50.904;9.192;2023-01-01T09:17:22;12.70;99.90
16732;DHT22;8484;50.904;9.192;2023-01-01T09:19:49;12.80;99.90
16732;DHT22;8484;50.904;9.192;2023-01-01T09:22:16;12.60;99.90
16732;DHT22;8484;50.904;9.192;2023-01-01T09:24:43;12.60;99.90
16732;DHT22;8484;50.904;9.192;2023-01-01T09:27:09;12.60;99.90
16732;DHT22;8484;50.904;9.192;2023-01-01T09:29:38;12.60;99.90
16732;DHT22;8484;50.904;9.192;2023-01-01T09:32:04;12.60;99.90
16732;DHT22;8484;50.904;9.192;2023-01-01T09:34:31;12.60;99.90
16732;DHT22;8484;50.904;9.192;2023-01-01T09:36:58;12.50;99.90
16732;DHT22;8484;50.904;9.192;2023-01-01T09:39:25;12.50;99.90
16732;DHT22;8484;50.904;9.192;2023-01-01T09:42:11;12.60;99.90
16732;DHT22;8484;50.904;9.192;2023-01-01T09:45:06;12.50;99.90
16732;DHT22;8484;50.904;9.192;2023-01-01T09:47:41;12.50;99.90
16732;DHT22;8484;50.904;9.192;2023-01-01T09:50:13;12.60;99.90
16732;DHT22;8484;50.904;9.192;2023-01-01T09:52:45;12.60;99.90
16732;DHT22;8484;50.904;9.192;2023-01-01T09:55:21;12.50;99.90
16732;DHT22;8484;50.904;9.192;2023-01-01T09:57:50;12.50;99.90
16732;DHT22;8484;50.904;9.192;2023-01-01T10:00:19;12.50;99.90
16732;DHT22;8484;50.904;9.192;2023-01-01T10:02:56;12.40;99.90
16732;DHT22;8484;50.904;9.192;2023-01-01T10:05:32;12.50;99.90
16732;DHT22;8484;50.904;9.192;2023-01-01T10:08:07;12.40;99.90
16732;DHT22;8484;50.904;9.192;2023-01-01T10:10:39;12.30;99.90
16732;DHT22;8484;50.904;9.192;2023-01-01T10:13:14;12.40;99.90
16732;DHT22;8484;50.904;9.192;2023-01-01T10:15:56;12.50;99.90
16732;DHT22;8484;50.904;9.192;2023-01-01T10:18:28;12.50;99.90
16732;DHT22;8484;50.904;9.192;2023-01-01T10:21:02;12.50;99.90
16732;DHT22;8484;50.904;9.192;2023-01-01T10:23:34;12.70;99.90
16732;DHT22;8484;50.904;9.192;2023-01-01T10:26:08;12.80;99.90
16732;DHT22;8484;50.904;9.192;2023-01-01T10:28:41;12.90;99.90
16732;DHT22;8484;50.904;9.192;2023-01-01T10:31:14;12.90;99.90
16732;DHT22;8484;50.904;9.192;2023-01-01T10:33:42;12.90;99.90
16732;DHT22;8484;50.904;9.192;2023-01-01T10:36:12;12.90;99.90
16732;DHT22;8484;50.904;9.192;2023-01-01T10:38:40;12.90;99.90
16732;DHT22;8484;50.904;9.192;2023-01-01T10:41:08;12.90;99.90
16732;DHT22;8484;50.904;9.192;2023-01-01T10:43:36;12.90;99.90
16732;DHT22;8484;50.904;9.192;2023-01-01T10:46:04;12.90;99.90
16732;DHT22;8484;50.904;9.192;2023-01-01T10:48:32;12.90;99.90
16732;DHT22;8484;50.904;9.192;2023-01-01T10:51:02;12.90;99.90
16732;DHT22;8484;50.904;9.192;2023-01-01T10:53:31;12.90;99.90
16732;DHT22;8484;50.904;9.192;2023-01-01T10:56:02;13.00;99.90
16732;DHT22;8484;50.904;9.192;2023-01-01T10:58:37;13.00;99.90
16732;DHT22;8484;50.904;9.192;2023-01-01T11:01:05;13.00;99.90
16732;DHT22;8484;50.904;9.192;2023-01-01T11:03:34;13.00;99.90
16732;DHT22;8484;50.904;9.192;2023-01-01T11:06:04;12.90;99.90
16732;DHT22;8484;50.904;9.192;2023-01-01T11:08:34;12.90;99.90
16732;DHT22;8484;50.904;9.192;2023-01-01T11:11:19;12.90;99.90
16732;DHT22;8484;50.904;9.192;2023-01-01T11:13:48;12.90;99.90
16732;DHT22;8484;50.904;9.192;2023-01-01T11:16:16;12.90;99.90
16732;DHT22;8484;50.904;9.192;2023-01-01T11:18:44;12.90;99.90
16732;DHT22;8484;50.904;9.192;2023-01-01T11:21:19;13.00;99.90
16732;DHT22;8484;50.904;9.192;2023-01-01T11:23:47;12.80;99.90
16732;DHT22;8484;50.904;9.192;2023-01-01T11:26:21;12.70;99.90
16732;DHT22;8484;50.904;9.192;2023-01-01T11:29:02;12.80;99.90
16732;DHT22;8484;50.904;9.192;2023-01-01T11:31:35;12.70;99.90
16732;DHT22;8484;50.904;9.192;2023-01-01T11:34:12;12.70;99.90
16732;DHT22;8484;50.904;9.192;2023-01-01T11:36:40;12.80;99.90
16732;DHT22;8484;50.904;9.192;2023-01-01T11:39:18;12.80;99.90
16732;DHT22;8484;50.904;9.192;2023-01-01T11:41:47;12.80;99.90
16732;DHT22;8484;50.904;9.192;2023-01-01T11:44:25;12.80;99.90
16732;DHT22;8484;50.904;9.192;2023-01-01T11:46:53;12.80;99.90
16732;DHT22;8484;50.904;9.192;2023-01-01T11:49:24;12.80;99.90
16732;DHT22;8484;50.904;9.192;2023-01-01T11:51:51;12.80;99.90
16732;DHT22;8484;50.904;9.192;2023-01-01T11:54:29;12.90;99.90
16732;DHT22;8484;50.904;9.192;2023-01-01T11:57:02;12.80;99.90
16732;DHT22;8484;50.904;9.192;2023-01-01T11:59:42;12.70;99.90
16732;DHT22;8484;50.904;9.192;2023-01-01T12:02:13;12.80;99.90
16732;DHT22;8484;50.904;9.192;2023-01-01T12:04:46;12.80;99.90
16732;DHT22;8484;50.904;9.192;2023-01-01T12:07:16;12.80;99.90
16732;DHT22;8484;50.904;9.192;2023-01-01T12:09:51;12.80;99.90
16732;DHT22;8484;50.904;9.192;2023-01-01T12:12:25;12.80;99.90
16732;DHT22;8484;50.904;9.192;2023-01-01T12:14:57;12.80;99.90
16732;DHT22;8484;50.904;9.192;2023-01-01T12:17:27;12.80;99.90
16732;DHT22;8484;50.904;9.192;2023-01-01T12:20:01;12.90;99.90
16732;DHT22;8484;50.904;9.192;2023-01-01T12:22:30;12.80;99.90
16732;DHT22;8484;50.904;9.192;2023-01-01T12:24:57;12.90;99.90
16732;DHT22;8484;50.904;9.192;2023-01-01T12:27:39;12.90;99.90
16732;DHT22;8484;50.904;9.192;2023-01-01T12:30:19;12.90;99.90
16732;DHT22;8484;50.904;9.192;2023-01-01T12:33:21;12.90;99.90
16732;DHT22;8484;50.904;9.192;2023-01-01T12:36:07;12.80;99.90
16732;DHT22;8484;50.904;9.192;2023-01-01T12:41:49;12.80;99.90
16732;DHT22;8484;50.904;9.192;2023-01-01T12:44:24;12.80;99.90
16732;DHT22;8484;50.904;9.192;2023-01-01T12:46:58;12.80;99.90
16732;DHT22;8484;50.904;9.192;2023-01-01T12:49:39;12.80;99.90
16732;DHT22;8484;50.904;9.192;2023-01-01T12:52:22;12.80;99.90
16732;DHT22;8484;50.904;9.192;2023-01-01T12:55:35;12.70;99.90
16732;DHT22;8484;50.904;9.192;2023-01-01T12:58:08;12.70;99.90
16732;DHT22;8484;50.904;9.192;2023-01-01T13:00:37;12.50;99.90
16732;DHT22;8484;50.904;9.192;2023-01-01T13:03:09;12.50;99.90
16732;DHT22;8484;50.904;9.192;2023-01-01T13:05:40;12.30;99.90
16732;DHT22;8484;50.904;9.192;2023-01-01T13:08:08;12.30;99.90
16732;DHT22;8484;50.904;9.192;2023-01-01T13:10:37;12.10;99.90
16732;DHT22;8484;50.904;9.192;2023-01-01T13:13:05;12.20;99.90
16732;DHT22;8484;50.904;9.192;2023-01-01T13:15:43;12.10;99.90
16732;DHT22;8484;50.904;9.192;2023-01-01T13:18:24;12.10;99.90
16732;DHT22;8484;50.904;9.192;2023-01-01T13:21:06;12.10;99.90
16732;DHT22;8484;50.904;9.192;2023-01-01T13:23:42;12.10;99.90
16732;DHT22;8484;50.904;9.192;2023-01-01T13:26:32;12.10;99.90
16732;DHT22;8484;50.904;9.192;2023-01-01T13:32:11;12.10;99.90
16732;DHT22;8484;50.904;9.192;2023-01-01T13:37:40;12.20;99.90
16732;DHT22;8484;50.904;9.192;2023-01-01T13:43:26;12.30;99.90
16732;DHT22;8484;50.904;9.192;2023-01-01T13:45:54;12.30;99.90
16732;DHT22;8484;50.904;9.192;2023-01-01T13:51:50;12.50;99.90
16732;DHT22;8484;50.904;9.192;2023-01-01T13:54:32;12.60;99.90
16732;DHT22;8484;50.904;9.192;2023-01-01T13:57:14;12.60;99.90
16732;DHT22;8484;50.904;9.192;2023-01-01T13:59:56;12.60;99.90
16732;DHT22;8484;50.904;9.192;2023-01-01T14:02:27;12.60;99.90
16732;DHT22;8484;50.904;9.192;2023-01-01T14:04:58;12.60;99.90
16732;DHT22;8484;50.904;9.192;2023-01-01T14:07:35;12.60;99.90
16732;DHT22;8484;50.904;9.192;2023-01-01T14:10:24;12.60;99.90
16732;DHT22;8484;50.904;9.192;2023-01-01T14:12:53;12.50;99.90
16732;DHT22;8484;50.904;9.192;2023-01-01T14:15:28;12.50;99.90
16732;DHT22;8484;50.904;9.192;2023-01-01T14:17:58;12.50;99.90
16732;DHT22;8484;50.904;9.192;2023-01-01T14:20:31;12.60;99.90
16732;DHT22;8484;50.904;9.192;2023-01-01T14:23:04;12.50;99.90
16732;DHT22;8484;50.904;9.192;2023-01-01T14:25:32;12.60;99.90
16732;DHT22;8484;50.904;9.192;2023-01-01T14:27:58;12.50;99.90
16732;DHT22;8484;50.904;9.192;2023-01-01T14:30:29;12.40;99.90
16732;DHT22;8484;50.904;9.192;2023-01-01T14:32:58;12.40;99.90
16732;DHT22;8484;50.904;9.192;2023-01-01T14:35:26;12.40;99.90
16732;DHT22;8484;50.904;9.192;2023-01-01T14:37:55;12.40;99.90
16732;DHT22;8484;50.904;9.192;2023-01-01T14:40:24;12.40;99.90
16732;DHT22;8484;50.904;9.192;2023-01-01T14:42:57;12.30;99.90
16732;DHT22;8484;50.904;9.192;2023-01-01T14:45:28;12.40;99.90
16732;DHT22;8484;50.904;9.192;2023-01-01T14:47:56;12.30;99.90
16732;DHT22;8484;50.904;9.192;2023-01-01T14:50:28;12.30;99.90
16732;DHT22;8484;50.904;9.192;2023-01-01T14:53:02;12.50;99.90
16732;DHT22;8484;50.904;9.192;2023-01-01T14:55:39;12.40;99.90
16732;DHT22;8484;50.904;9.192;2023-01-01T14:58:11;12.30;99.90
16732;DHT22;8484;50.904;9.192;2023-01-01T15:00:40;12.30;99.90
16732;DHT22;8484;50.904;9.192;2023-01-01T15:03:12;12.30;99.90
16732;DHT22;8484;50.904;9.192;2023-01-01T15:05:40;12.10;99.90
16732;DHT22;8484;50.904;9.192;2023-01-01T15:08:18;12.30;99.90
16732;DHT22;8484;50.904;9.192;2023-01-01T15:10:46;12.20;99.90
16732;DHT22;8484;50.904;9.192;2023-01-01T15:13:17;12.20;99.90
16732;DHT22;8484;50.904;9.192;2023-01-01T15:15:47;12.20;99.90
16732;DHT22;8484;50.904;9.192;2023-01-01T15:18:41;12.30;99.90
16732;DHT22;8484;50.904;9.192;2023-01-01T15:21:13;12.20;99.90
16732;DHT22;8484;50.904;9.192;2023-01-01T15:23:51;12.20;99.90
16732;DHT22;8484;50.904;9.192;2023-01-01T15:26:26;12.10;99.90
16732;DHT22;8484;50.904;9.192;2023-01-01T15:28:55;12.30;99.90
16732;DHT22;8484;50.904;9.192;2023-01-01T15:31:34;12.20;99.90
16732;DHT22;8484;50.904;9.192;2023-01-01T15:34:02;12.10;99.90
16732;DHT22;8484;50.904;9.192;2023-01-01T15:36:29;12.10;99.90
16732;DHT22;8484;50.904;9.192;2023-01-01T15:38:56;12.20;99.90
16732;DHT22;8484;50.904;9.192;2023-01-01T15:41:32;12.20;99.90
16732;DHT22;8484;50.904;9.192;2023-01-01T15:44:07;12.20;99.90
16732;DHT22;8484;50.904;9.192;2023-01-01T15:46:35;12.10;99.90
16732;DHT22;8484;50.904;9.192;2023-01-01T15:49:02;12.10;99.90
16732;DHT22;8484;50.904;9.192;2023-01-01T15:51:29;12.10;99.90
16732;DHT22;8484;50.904;9.192;2023-01-01T15:53:58;12.20;99.90
16732;DHT22;8484;50.904;9.192;2023-01-01T15:56:28;12.20;99.90
16732;DHT22;8484;50.904;9.192;2023-01-01T15:58:58;12.20;99.90
16732;DHT22;8484;50.904;9.192;2023-01-01T16:01:28;12.30;99.90
16732;DHT22;8484;50.904;9.192;2023-01-01T16:04:01;12.10;99.90
16732;DHT22;8484;50.904;9.192;2023-01-01T16:06:29;12.00;99.90
16732;DHT22;8484;50.904;9.192;2023-01-01T16:08:56;12.10;99.90
16732;DHT22;8484;50.904;9.192;2023-01-01T16:11:22;12.10;99.90
16732;DHT22;8484;50.904;9.192;2023-01-01T16:13:49;12.00;99.90
16732;DHT22;8484;50.904;9.192;2023-01-01T16:16:25;12.00;99.90
16732;DHT22;8484;50.904;9.192;2023-01-01T16:18:53;11.90;99.90
16732;DHT22;8484;50.904;9.192;2023-01-01T16:21:24;11.80;99.90
16732;DHT22;8484;50.904;9.192;2023-01-01T16:23:51;11.70;99.90
16732;DHT22;8484;50.904;9.192;2023-01-01T16:26:18;11.60;99.90